Time;durP1;ratioP1;P1;durP2;ratioP2;P2;SDS_P1;SDS_P2;PMS_P1;PMS_P2;Temp;Humidity;BMP_temperature;BMP_pressure;BME280_temperature;BME280_humidity;BME280_pressure;Samples;Min_cycle;Max_cycle;Signal;HPM_P1;HPM_P2
2022/10/16 00:00:31;;;;;;;8.90;2.47;;;12.70;99.90;;;;;;4967041;28;20046;-55
2022/10/16 00:02:57;;;;;;;4.57;1.58;;;12.70;99.90;;;;;;4966807;28;20043;-55
2022/10/16 00:05:22;;;;;;;5.85;2.20;;;12.60;99.90;;;;;;4957225;28;20543;-55
2022/10/16 00:07:48;;;;;;;7.85;1.88;;;12.70;99.90;;;;;;4946861;29;20489;-54
2022/10/16 00:10:14;;;;;;;7.47;2.13;;;12.70;99.90;;;;;;4946845;29;20428;-54
2022/10/16 00:12:39;;;;;;;5.38;2.00;;;12.60;99.90;;;;;;4929392;29;20098;-55
2022/10/16 00:15:06;;;;;;;9.98;2.60;;;12.50;99.90;;;;;;4947138;29;20090;-55
2022/10/16 00:17:32;;;;;;;5.43;2.05;;;12.60;99.90;;;;;;4946409;29;20585;-54
2022/10/16 00:19:57;;;;;;;7.07;2.08;;;12.60;99.90;;;;;;4947347;29;20047;-56
2022/10/16 00:22:23;;;;;;;6.30;2.10;;;12.60;99.90;;;;;;4946193;29;20043;-55
2022/10/16 00:24:49;;;;;;;7.60;2.33;;;12.60;99.90;;;;;;4946010;29;20494;-56
2022/10/16 00:27:16;;;;;;;6.50;2.08;;;12.60;99.90;;;;;;4944094;29;20057;-55
2022/10/16 00:29:41;;;;;;;7.10;2.13;;;12.40;99.90;;;;;;4946648;29;20138;-54
2022/10/16 00:32:07;;;;;;;7.13;2.22;;;12.50;99.90;;;;;;4929161;29;20135;-55
2022/10/16 00:34:32;;;;;;;7.47;2.40;;;12.40;99.90;;;;;;4945895;29;20051;-55
2022/10/16 00:36:58;;;;;;;5.72;1.92;;;12.40;99.90;;;;;;4946164;28;20099;-54
2022/10/16 00:39:24;;;;;;;8.65;2.17;;;12.40;99.90;;;;;;4929000;29;20055;-55
2022/10/16 00:41:50;;;;;;;8.05;2.42;;;12.40;99.90;;;;;;4946182;29;20085;-54
2022/10/16 00:44:56;;;;;;;9.10;2.80;;;12.40;99.90;;;;;;4945422;29;20091;-55
2022/10/16 00:47:32;;;;;;;4.75;2.08;;;12.30;99.90;;;;;;4945421;29;20090;-55
2022/10/16 00:50:32;;;;;;;6.43;2.10;;;12.30;99.90;;;;;;4946546;29;20106;-54
2022/10/16 00:52:59;;;;;;;8.13;2.03;;;12.30;99.90;;;;;;4946519;29;20083;-55
2022/10/16 00:55:26;;;;;;;4.85;2.25;;;12.40;99.90;;;;;;4945591;29;20039;-55
2022/10/16 00:57:52;;;;;;;7.28;2.92;;;12.40;99.90;;;;;;4944863;29;20206;-54
2022/10/16 01:00:21;;;;;;;5.28;2.10;;;12.30;99.90;;;;;;4945666;29;20043;-54
2022/10/16 01:02:58;;;;;;;4.55;1.85;;;12.40;99.90;;;;;;4946340;29;20042;-54
2022/10/16 01:05:30;;;;;;;6.95;2.10;;;12.40;99.90;;;;;;4944644;28;20934;-55
2022/10/16 01:08:09;;;;;;;7.80;1.92;;;12.30;99.90;;;;;;4945963;29;20047;-54
2022/10/16 01:10:40;;;;;;;3.83;1.83;;;12.50;99.90;;;;;;4945491;29;20118;-54
2022/10/16 01:13:07;;;;;;;5.03;1.90;;;12.50;99.90;;;;;;4944840;29;20138;-56
2022/10/16 01:15:40;;;;;;;10.98;2.50;;;12.40;99.90;;;;;;4946193;29;20382;-56
2022/10/16 01:18:27;;;;;;;4.07;1.73;;;12.20;99.90;;;;;;4945330;29;20086;-55
2022/10/16 01:21:32;;;;;;;7.22;2.10;;;12.50;99.90;;;;;;4945850;29;20407;-55
2022/10/16 01:24:08;;;;;;;6.32;2.47;;;12.30;99.90;;;;;;4885851;29;20048;-55
2022/10/16 01:27:10;;;;;;;9.90;2.55;;;12.30;99.90;;;;;;4922195;29;20507;-55
2022/10/16 01:29:38;;;;;;;4.60;1.90;;;12.10;99.90;;;;;;4912917;29;20055;-54
2022/10/16 01:32:32;;;;;;;4.95;1.95;;;12.10;99.90;;;;;;4944461;29;20078;-54
2022/10/16 01:35:11;;;;;;;6.82;2.30;;;12.00;99.90;;;;;;4935091;29;20388;-55
2022/10/16 01:38:12;;;;;;;6.45;1.85;;;12.10;99.90;;;;;;4944813;29;20307;-53
2022/10/16 01:40:41;;;;;;;6.93;2.25;;;12.20;99.90;;;;;;4944957;29;20055;-55
2022/10/16 01:43:20;;;;;;;7.65;2.28;;;12.10;99.90;;;;;;4944214;29;20145;-55
2022/10/16 01:45:47;;;;;;;7.20;1.88;;;12.10;99.90;;;;;;4945242;29;20051;-54
2022/10/16 01:48:17;;;;;;;6.07;2.00;;;12.10;99.90;;;;;;4944233;28;20109;-54
2022/10/16 01:50:47;;;;;;;7.28;2.08;;;12.10;99.90;;;;;;4945040;29;20398;-55
2022/10/16 01:53:15;;;;;;;4.35;2.00;;;12.30;99.90;;;;;;4944411;28;20047;-55
2022/10/16 01:55:45;;;;;;;6.07;2.00;;;12.30;99.90;;;;;;4944806;29;20108;-53
2022/10/16 01:58:13;;;;;;;5.68;1.90;;;12.30;99.90;;;;;;4943980;29;20699;-55
2022/10/16 02:00:42;;;;;;;5.28;1.95;;;12.10;99.90;;;;;;4945515;29;20045;-54
2022/10/16 02:03:10;;;;;;;6.38;2.15;;;12.30;99.90;;;;;;4933931;28;20039;-54
2022/10/16 02:05:44;;;;;;;6.43;2.40;;;12.20;99.90;;;;;;4935886;29;20051;-54
2022/10/16 02:08:10;;;;;;;9.30;2.30;;;12.30;99.90;;;;;;4944463;29;20118;-54
2022/10/16 02:10:37;;;;;;;6.38;2.25;;;12.30;99.90;;;;;;4944309;29;20135;-55
2022/10/16 02:13:27;;;;;;;4.63;1.70;;;12.20;99.90;;;;;;4944538;29;20064;-56
2022/10/16 02:15:52;;;;;;;8.52;1.88;;;12.40;99.90;;;;;;4944455;29;20082;-55
2022/10/16 02:18:19;;;;;;;6.68;2.13;;;12.40;99.90;;;;;;4927162;29;20550;-55
2022/10/16 02:20:57;;;;;;;5.82;2.28;;;12.60;99.90;;;;;;4927828;29;20090;-54
2022/10/16 02:24:06;;;;;;;5.55;2.05;;;12.60;99.90;;;;;;5009537;23;20082;-55
2022/10/16 02:27:11;;;;;;;6.20;2.40;;;12.50;99.90;;;;;;4943632;29;20134;-55
2022/10/16 02:29:48;;;;;;;5.30;2.33;;;12.60;99.90;;;;;;4916401;29;20110;-55
2022/10/16 02:32:16;;;;;;;4.65;2.10;;;12.50;99.90;;;;;;4925537;29;20079;-54
2022/10/16 02:34:43;;;;;;;4.30;1.52;;;12.70;99.90;;;;;;4925658;29;20454;-53
2022/10/16 02:37:10;;;;;;;5.78;2.45;;;12.50;99.90;;;;;;4925009;29;20172;-55
2022/10/16 02:39:36;;;;;;;7.85;2.30;;;12.70;99.90;;;;;;4925115;29;20047;-54
2022/10/16 02:42:02;;;;;;;4.47;2.10;;;12.60;99.90;;;;;;4924435;29;20052;-54
2022/10/16 02:44:28;;;;;;;5.70;2.35;;;12.60;99.90;;;;;;4925645;29;20040;-55
2022/10/16 02:46:53;;;;;;;7.00;2.47;;;12.60;99.90;;;;;;4925573;29;20047;-55
2022/10/16 02:49:19;;;;;;;6.50;2.67;;;12.60;99.90;;;;;;4925754;29;20479;-55
2022/10/16 02:51:45;;;;;;;4.60;2.45;;;12.60;99.90;;;;;;4926209;29;20040;-55
2022/10/16 02:54:10;;;;;;;5.07;2.30;;;12.60;99.90;;;;;;4925566;29;20071;-54
2022/10/16 02:56:36;;;;;;;5.65;2.50;;;12.60;99.90;;;;;;4925317;29;20471;-54
2022/10/16 02:59:01;;;;;;;7.60;2.40;;;12.60;99.90;;;;;;4925019;29;20076;-54
2022/10/16 03:01:27;;;;;;;5.53;2.45;;;12.70;99.90;;;;;;4928891;29;20090;-54
2022/10/16 03:03:53;;;;;;;6.47;2.50;;;12.80;99.90;;;;;;4927632;29;20185;-54
2022/10/16 03:06:18;;;;;;;5.45;2.33;;;12.70;99.90;;;;;;4943066;29;20138;-55
2022/10/16 03:08:44;;;;;;;5.35;2.30;;;12.70;99.90;;;;;;4947351;29;20758;-55
2022/10/16 03:11:10;;;;;;;3.88;1.98;;;12.70;99.90;;;;;;4947385;29;20174;-53
2022/10/16 03:13:35;;;;;;;7.00;2.75;;;12.70;99.90;;;;;;4929074;29;20102;-54
2022/10/16 03:16:01;;;;;;;5.25;2.35;;;12.60;99.90;;;;;;4947268;29;20054;-55
2022/10/16 03:18:26;;;;;;;7.82;2.50;;;12.70;99.90;;;;;;4946769;29;20050;-54
2022/10/16 03:20:52;;;;;;;4.85;2.17;;;12.70;99.90;;;;;;4947609;29;20047;-54
2022/10/16 03:23:18;;;;;;;3.72;2.00;;;12.70;99.90;;;;;;4955896;28;20055;-54
2022/10/16 03:25:43;;;;;;;4.72;2.50;;;12.70;99.90;;;;;;4966411;28;20709;-54
2022/10/16 03:28:09;;;;;;;6.07;2.22;;;12.70;99.90;;;;;;4965640;28;20073;-55
2022/10/16 03:30:35;;;;;;;6.45;2.03;;;12.80;99.90;;;;;;4966395;28;20359;-54
2022/10/16 03:33:00;;;;;;;3.75;2.05;;;12.70;99.90;;;;;;4967253;28;20055;-54
2022/10/16 03:35:26;;;;;;;5.22;2.10;;;12.70;99.90;;;;;;4966369;28;20602;-54
2022/10/16 03:37:52;;;;;;;4.32;2.05;;;12.70;99.90;;;;;;4966230;28;20051;-55
2022/10/16 03:40:17;;;;;;;6.43;1.90;;;12.70;99.90;;;;;;4948567;28;20074;-53
2022/10/16 03:42:43;;;;;;;6.10;2.20;;;12.80;99.90;;;;;;4966377;28;20051;-55
2022/10/16 03:45:10;;;;;;;7.68;2.40;;;12.70;99.90;;;;;;4967008;28;20058;-53
2022/10/16 03:47:36;;;;;;;3.55;1.95;;;12.80;99.90;;;;;;4966621;28;20042;-54
2022/10/16 03:50:03;;;;;;;3.75;1.90;;;12.80;99.90;;;;;;4966145;28;20042;-55
2022/10/16 03:52:29;;;;;;;7.13;2.20;;;12.70;99.90;;;;;;4966270;28;20054;-54
2022/10/16 03:54:55;;;;;;;4.55;2.33;;;12.80;99.90;;;;;;4966237;28;20042;-53
2022/10/16 03:57:21;;;;;;;5.43;2.17;;;12.80;99.90;;;;;;4964727;28;20049;-54
2022/10/16 03:59:47;;;;;;;4.40;2.17;;;12.60;99.90;;;;;;4966547;28;20047;-55
2022/10/16 04:02:13;;;;;;;4.97;2.40;;;12.80;99.90;;;;;;4965909;28;20398;-54
2022/10/16 04:04:38;;;;;;;3.65;2.15;;;12.70;99.90;;;;;;4948227;28;20050;-53
2022/10/16 04:07:04;;;;;;;5.07;2.17;;;12.60;99.90;;;;;;4965635;28;20041;-55
2022/10/16 04:09:30;;;;;;;5.57;2.50;;;12.70;99.90;;;;;;4967217;28;20643;-55
2022/10/16 04:11:56;;;;;;;6.22;2.50;;;12.50;99.90;;;;;;4964254;28;20050;-55
2022/10/16 04:14:21;;;;;;;5.00;2.17;;;12.50;99.90;;;;;;4965421;28;20078;-53
2022/10/16 04:16:47;;;;;;;4.15;2.25;;;12.70;99.90;;;;;;4965999;28;20051;-55
2022/10/16 04:19:13;;;;;;;3.70;2.03;;;12.60;99.90;;;;;;4965324;28;20046;-54
2022/10/16 04:21:38;;;;;;;3.53;1.77;;;12.50;99.90;;;;;;4966295;28;20144;-54
2022/10/16 04:24:04;;;;;;;6.53;2.30;;;12.60;99.90;;;;;;4964738;28;20133;-54
2022/10/16 04:26:30;;;;;;;5.28;2.00;;;12.60;99.90;;;;;;4966074;28;20049;-54
2022/10/16 04:28:56;;;;;;;3.58;2.05;;;12.50;99.90;;;;;;4965564;28;20049;-55
2022/10/16 04:31:22;;;;;;;5.05;2.30;;;12.50;99.90;;;;;;4965537;28;20241;-55
2022/10/16 04:33:47;;;;;;;7.40;2.20;;;12.40;99.90;;;;;;4965216;28;20038;-54
2022/10/16 04:36:13;;;;;;;4.53;2.20;;;12.50;99.90;;;;;;4947785;28;20133;-55
2022/10/16 04:38:39;;;;;;;4.55;2.00;;;12.60;99.90;;;;;;4965484;28;20039;-55
2022/10/16 04:41:06;;;;;;;6.90;2.42;;;12.60;99.90;;;;;;4964977;28;20093;-55
2022/10/16 04:43:33;;;;;;;5.78;2.40;;;12.50;99.90;;;;;;4947275;28;20106;-54
2022/10/16 04:45:58;;;;;;;4.40;2.25;;;12.60;99.90;;;;;;4965307;28;20086;-54
2022/10/16 04:48:24;;;;;;;4.40;2.33;;;12.40;99.90;;;;;;4965254;28;20125;-55
2022/10/16 04:50:49;;;;;;;6.47;2.20;;;12.50;99.90;;;;;;4964648;28;20105;-53
2022/10/16 04:53:15;;;;;;;3.50;2.05;;;12.70;99.90;;;;;;4965260;28;20043;-54
2022/10/16 04:55:42;;;;;;;3.90;2.13;;;12.70;99.90;;;;;;4964702;28;20047;-56
2022/10/16 04:58:08;;;;;;;5.43;2.00;;;12.50;99.90;;;;;;4963185;28;20042;-55
2022/10/16 05:00:34;;;;;;;7.32;2.30;;;12.60;99.90;;;;;;4964978;28;20043;-54
2022/10/16 05:03:00;;;;;;;5.90;2.08;;;12.50;99.90;;;;;;4965559;28;20130;-53
2022/10/16 05:05:27;;;;;;;6.07;2.10;;;12.50;99.90;;;;;;4963985;28;20588;-54
2022/10/16 05:07:53;;;;;;;5.00;2.00;;;12.40;99.90;;;;;;4964769;28;20054;-55
2022/10/16 05:10:18;;;;;;;5.03;2.33;;;12.50;99.90;;;;;;4965123;28;20035;-54
2022/10/16 05:12:44;;;;;;;3.38;1.55;;;12.50;99.90;;;;;;4964502;28;20065;-54
2022/10/16 05:15:10;;;;;;;4.95;2.03;;;12.60;99.90;;;;;;4964739;28;20046;-55
2022/10/16 05:17:36;;;;;;;6.00;2.08;;;12.50;99.90;;;;;;4964943;28;20042;-55
2022/10/16 05:20:03;;;;;;;4.90;2.38;;;12.60;99.90;;;;;;4965390;28;20042;-55
2022/10/16 05:22:28;;;;;;;7.60;2.55;;;12.60;99.90;;;;;;4965044;28;20059;-54
2022/10/16 05:24:54;;;;;;;5.05;2.22;;;12.80;99.90;;;;;;4964843;28;20145;-54
2022/10/16 05:27:20;;;;;;;4.55;1.80;;;12.80;99.90;;;;;;4963640;28;20074;-54
2022/10/16 05:29:47;;;;;;;7.13;2.40;;;12.80;99.90;;;;;;4965288;28;20074;-55
2022/10/16 05:32:13;;;;;;;5.13;2.53;;;12.80;99.90;;;;;;4947072;28;20042;-54
2022/10/16 05:34:39;;;;;;;5.63;2.40;;;12.70;99.90;;;;;;4964104;28;20438;-55
2022/10/16 05:37:05;;;;;;;5.35;2.50;;;12.70;99.90;;;;;;4947212;28;20027;-54
2022/10/16 05:39:31;;;;;;;3.90;1.80;;;12.80;99.90;;;;;;4964130;28;20057;-55
2022/10/16 05:41:57;;;;;;;4.32;2.25;;;12.60;99.90;;;;;;4963543;28;20043;-54
2022/10/16 05:44:22;;;;;;;4.90;2.42;;;12.90;99.90;;;;;;4964125;28;20042;-53
2022/10/16 05:46:48;;;;;;;6.22;2.55;;;12.60;99.90;;;;;;4964052;28;20113;-54
2022/10/16 05:49:14;;;;;;;4.72;2.50;;;12.60;99.90;;;;;;4963963;28;20122;-55
2022/10/16 05:51:39;;;;;;;4.80;2.40;;;12.90;99.90;;;;;;4963088;28;20415;-54
2022/10/16 05:54:05;;;;;;;3.58;2.20;;;12.60;99.90;;;;;;4963958;28;20494;-55
2022/10/16 05:56:31;;;;;;;4.70;2.55;;;12.80;99.90;;;;;;4963738;28;20053;-54
2022/10/16 05:58:56;;;;;;;6.10;2.78;;;12.60;99.90;;;;;;4964412;28;20043;-55
2022/10/16 06:01:23;;;;;;;3.60;2.30;;;12.60;99.90;;;;;;4963481;28;20046;-55
2022/10/16 06:03:52;;;;;;;4.85;2.50;;;12.60;99.90;;;;;;4964697;28;20114;-55
2022/10/16 06:06:23;;;;;;;5.47;2.88;;;12.80;99.90;;;;;;4963832;28;20090;-54
2022/10/16 06:08:50;;;;;;;3.67;2.33;;;12.80;99.90;;;;;;4963455;28;20038;-55
2022/10/16 06:11:18;;;;;;;7.35;3.00;;;12.80;99.90;;;;;;4964055;28;20043;-53
2022/10/16 06:13:45;;;;;;;3.75;2.63;;;12.60;99.90;;;;;;4964778;28;20057;-53
2022/10/16 06:16:12;;;;;;;6.78;2.60;;;12.80;99.90;;;;;;4962860;28;20137;-55
2022/10/16 06:18:38;;;;;;;5.40;2.72;;;12.60;99.90;;;;;;4963941;28;20038;-54
2022/10/16 06:21:16;;;;;;;4.95;2.47;;;12.80;99.90;;;;;;4963786;28;20121;-53
2022/10/16 06:23:42;;;;;;;4.63;2.88;;;12.80;99.90;;;;;;4945542;28;20133;-55
2022/10/16 06:26:12;;;;;;;7.95;3.17;;;12.60;99.90;;;;;;4964386;28;20462;-53
2022/10/16 06:28:39;;;;;;;4.70;2.72;;;12.70;99.90;;;;;;4963846;28;20045;-55
2022/10/16 06:31:06;;;;;;;5.35;2.80;;;12.70;99.90;;;;;;4963885;28;20354;-53
2022/10/16 06:33:33;;;;;;;4.13;2.92;;;12.70;99.90;;;;;;4964210;28;20062;-56
2022/10/16 06:36:14;;;;;;;5.00;2.08;;;12.90;99.90;;;;;;4968001;28;20134;-55
2022/10/16 06:38:40;;;;;;;4.38;2.47;;;12.80;99.90;;;;;;4967079;28;20109;-54
2022/10/16 06:41:07;;;;;;;7.00;2.88;;;12.90;99.90;;;;;;4967665;28;20131;-54
2022/10/16 06:43:35;;;;;;;4.63;2.85;;;12.70;99.90;;;;;;4966687;28;20415;-54
2022/10/16 06:46:01;;;;;;;6.38;2.70;;;12.80;99.90;;;;;;4967431;28;20070;-55
2022/10/16 06:48:28;;;;;;;5.55;2.80;;;12.70;99.90;;;;;;4968052;28;20134;-55
2022/10/16 06:50:59;;;;;;;7.18;2.83;;;12.90;99.90;;;;;;4967225;28;20498;-55
2022/10/16 06:53:28;;;;;;;6.93;2.75;;;13.00;99.90;;;;;;4966859;28;20035;-55
2022/10/16 06:55:54;;;;;;;4.88;2.88;;;12.80;99.90;;;;;;4967700;28;20039;-54
2022/10/16 06:58:20;;;;;;;3.80;2.28;;;13.00;99.90;;;;;;4966157;28;20051;-54
2022/10/16 07:00:46;;;;;;;5.38;3.05;;;12.90;99.90;;;;;;4966836;28;20041;-55
2022/10/16 07:03:12;;;;;;;6.28;2.30;;;12.80;99.90;;;;;;4966715;28;20517;-55
2022/10/16 07:05:39;;;;;;;4.90;3.00;;;13.00;99.90;;;;;;4966811;28;20457;-54
2022/10/16 07:08:05;;;;;;;6.30;2.55;;;13.00;99.90;;;;;;4946509;29;20055;-53
2022/10/16 07:10:31;;;;;;;5.63;2.65;;;12.90;99.90;;;;;;4947341;29;20044;-54
2022/10/16 07:12:57;;;;;;;5.32;2.47;;;13.00;99.90;;;;;;4947385;29;20054;-55
2022/10/16 07:15:24;;;;;;;5.18;2.55;;;13.00;99.90;;;;;;4930426;29;20418;-54
2022/10/16 07:17:50;;;;;;;4.18;2.00;;;12.90;99.90;;;;;;4947572;29;20059;-55
2022/10/16 07:20:15;;;;;;;4.50;2.47;;;13.00;99.90;;;;;;4946860;29;20062;-53
2022/10/16 07:22:41;;;;;;;6.32;2.50;;;13.10;99.90;;;;;;4947135;29;20066;-54
2022/10/16 07:25:07;;;;;;;6.82;2.53;;;13.20;99.90;;;;;;4947511;29;20475;-53
2022/10/16 07:27:34;;;;;;;5.80;2.15;;;13.20;99.90;;;;;;4947655;29;20047;-55
2022/10/16 07:29:59;;;;;;;4.07;2.30;;;13.30;99.90;;;;;;4930732;29;20045;-56
2022/10/16 07:32:25;;;;;;;3.78;2.03;;;13.30;99.90;;;;;;4946908;29;20653;-55
2022/10/16 07:34:52;;;;;;;4.05;1.70;;;13.20;99.90;;;;;;4930374;29;20058;-55
2022/10/16 07:37:17;;;;;;;3.08;2.00;;;13.30;99.90;;;;;;4947107;29;20145;-54
2022/10/16 07:39:43;;;;;;;5.25;1.95;;;13.30;99.90;;;;;;4947748;29;20079;-55
2022/10/16 07:42:08;;;;;;;5.30;2.17;;;13.40;99.90;;;;;;4945526;29;20126;-54
2022/10/16 07:44:34;;;;;;;3.38;1.60;;;13.30;99.90;;;;;;4930373;28;20055;-54
2022/10/16 07:47:00;;;;;;;4.93;2.58;;;13.30;99.90;;;;;;4946966;29;20062;-54
2022/10/16 07:49:25;;;;;;;3.33;1.90;;;13.40;99.90;;;;;;4946515;29;20047;-53
2022/10/16 07:51:51;;;;;;;8.23;2.22;;;13.40;99.90;;;;;;4946799;29;20135;-54
2022/10/16 07:54:17;;;;;;;5.13;2.10;;;13.50;99.90;;;;;;4946798;29;20055;-55
2022/10/16 07:56:42;;;;;;;5.72;2.50;;;13.50;99.90;;;;;;4945487;29;20054;-54
2022/10/16 07:59:08;;;;;;;4.50;2.22;;;13.40;99.90;;;;;;4946920;29;20051;-55
2022/10/16 08:01:34;;;;;;;5.03;2.40;;;13.40;99.90;;;;;;4952012;28;20043;-55
2022/10/16 08:03:59;;;;;;;5.03;1.83;;;13.40;99.90;;;;;;4954877;28;20074;-53
2022/10/16 08:06:25;;;;;;;8.27;2.30;;;13.50;99.90;;;;;;4960868;28;20055;-55
2022/10/16 08:08:51;;;;;;;4.95;1.90;;;13.60;99.90;;;;;;4952972;28;20047;-54
2022/10/16 08:11:17;;;;;;;7.35;2.33;;;13.60;99.90;;;;;;4946962;29;20051;-53
2022/10/16 08:13:43;;;;;;;6.28;2.20;;;13.60;99.90;;;;;;4929673;29;20059;-55
2022/10/16 08:16:09;;;;;;;7.32;2.45;;;13.60;99.90;;;;;;4947454;29;20177;-55
2022/10/16 08:18:39;;;;;;;5.03;2.28;;;13.60;99.90;;;;;;4946128;29;20490;-56
2022/10/16 08:21:06;;;;;;;4.05;2.00;;;13.70;99.90;;;;;;4945628;29;20650;-55
2022/10/16 08:23:32;;;;;;;5.72;2.03;;;13.60;99.90;;;;;;4946173;29;20063;-55
2022/10/16 08:26:04;;;;;;;4.93;2.10;;;13.50;99.90;;;;;;4945895;29;20039;-56
2022/10/16 08:28:30;;;;;;;7.07;2.28;;;13.80;99.90;;;;;;4946893;29;20058;-53
2022/10/16 08:30:56;;;;;;;5.95;1.65;;;13.70;99.90;;;;;;4946685;29;20047;-55
2022/10/16 08:33:22;;;;;;;4.93;1.83;;;13.70;99.90;;;;;;4946059;29;20055;-55
2022/10/16 08:35:53;;;;;;;5.35;2.05;;;13.80;99.90;;;;;;4945883;29;20050;-55
2022/10/16 08:38:19;;;;;;;6.35;2.08;;;14.10;99.90;;;;;;4945252;29;20043;-55
2022/10/16 08:40:45;;;;;;;5.75;2.40;;;14.10;99.90;;;;;;4946805;29;20049;-54
2022/10/16 08:43:20;;;;;;;5.88;2.08;;;13.90;99.90;;;;;;4944880;29;20051;-54
2022/10/16 08:46:05;;;;;;;5.80;2.25;;;14.20;99.90;;;;;;4945168;29;20047;-55
2022/10/16 08:48:43;;;;;;;3.65;1.50;;;14.20;99.90;;;;;;4945750;29;20139;-55
2022/10/16 08:51:18;;;;;;;4.80;1.95;;;14.10;99.90;;;;;;4944429;29;20078;-55
2022/10/16 08:53:53;;;;;;;4.82;1.90;;;14.20;99.90;;;;;;4946584;29;20457;-53
2022/10/16 08:56:19;;;;;;;4.88;1.63;;;14.40;99.90;;;;;;4943533;28;20047;-54
2022/10/16 08:58:47;;;;;;;8.15;1.95;;;14.60;99.90;;;;;;4945865;29;20415;-55
2022/10/16 09:01:15;;;;;;;4.18;1.60;;;14.60;99.90;;;;;;4945328;29;20058;-55
2022/10/16 09:04:23;;;;;;;5.28;1.95;;;15.30;99.90;;;;;;4945478;29;20047;-55
2022/10/16 09:07:02;;;;;;;5.40;1.63;;;15.20;99.90;;;;;;4963560;28;20101;-55
2022/10/16 09:09:37;;;;;;;4.07;1.20;;;15.20;99.90;;;;;;4965140;28;20051;-54
2022/10/16 09:12:25;;;;;;;5.53;1.85;;;15.20;99.90;;;;;;4964354;28;20046;-55
2022/10/16 09:15:18;;;;;;;5.75;1.70;;;15.10;99.90;;;;;;4965465;28;20141;-55
2022/10/16 09:17:57;;;;;;;6.38;1.42;;;15.00;99.90;;;;;;4953347;28;20077;-55
2022/10/16 09:20:29;;;;;;;3.42;0.95;;;15.60;99.90;;;;;;4964264;28;20077;-54
2022/10/16 09:23:14;;;;;;;3.70;1.17;;;15.60;99.90;;;;;;4956523;28;20142;-54
2022/10/16 09:25:43;;;;;;;4.97;1.38;;;15.80;99.90;;;;;;4928085;29;20539;-55
2022/10/16 09:28:10;;;;;;;4.90;1.40;;;16.20;99.90;;;;;;4943860;29;20055;-54
2022/10/16 09:30:37;;;;;;;5.45;1.17;;;16.40;99.90;;;;;;4944737;29;20715;-55
2022/10/16 09:33:04;;;;;;;3.67;1.05;;;16.80;99.90;;;;;;4945735;29;20047;-54
2022/10/16 09:35:39;;;;;;;4.43;1.13;;;16.40;99.90;;;;;;4946272;29;20059;-55
2022/10/16 09:38:05;;;;;;;4.13;1.02;;;16.60;99.90;;;;;;4944611;29;20055;-54
2022/10/16 09:40:37;;;;;;;2.30;0.90;;;16.60;99.90;;;;;;4945565;29;20036;-53
2022/10/16 09:43:21;;;;;;;4.82;1.45;;;16.80;99.90;;;;;;4944365;29;20839;-54
2022/10/16 09:46:00;;;;;;;4.38;1.35;;;16.80;99.90;;;;;;4945433;29;20050;-54
2022/10/16 09:48:44;;;;;;;5.25;1.45;;;16.30;99.90;;;;;;4945079;29;20051;-56
2022/10/16 09:51:21;;;;;;;3.38;1.00;;;16.70;99.90;;;;;;4944923;29;20051;-55
2022/10/16 09:53:48;;;;;;;6.10;1.50;;;16.30;99.90;;;;;;4945290;29;20063;-56
2022/10/16 09:56:25;;;;;;;7.40;1.20;;;16.40;99.90;;;;;;4943614;29;20043;-55
2022/10/16 09:58:57;;;;;;;7.68;1.60;;;16.50;99.90;;;;;;4945062;29;20387;-54
2022/10/16 10:01:31;;;;;;;7.20;1.23;;;16.50;99.90;;;;;;4926905;29;20067;-55
2022/10/16 10:04:02;;;;;;;3.63;1.17;;;16.40;99.90;;;;;;4944964;29;20047;-55
2022/10/16 10:06:37;;;;;;;5.07;1.20;;;16.20;99.90;;;;;;4944681;29;20051;-55
2022/10/16 10:09:15;;;;;;;6.38;1.45;;;16.10;99.90;;;;;;4945258;28;20047;-55
2022/10/16 10:11:45;;;;;;;5.78;1.50;;;16.10;99.90;;;;;;4931132;29;20055;-56
2022/10/16 10:14:39;;;;;;;9.00;1.77;;;16.00;99.90;;;;;;4931259;29;20051;-55
2022/10/16 10:17:05;;;;;;;8.63;1.42;;;16.00;99.90;;;;;;4948885;29;20055;-55
2022/10/16 10:19:52;;;;;;;5.70;1.42;;;15.90;99.90;;;;;;4949223;29;20069;-55
2022/10/16 10:22:41;;;;;;;6.28;1.60;;;16.10;99.90;;;;;;4950114;28;20398;-55
2022/10/16 10:25:12;;;;;;;8.48;1.77;;;16.30;99.90;;;;;;4967421;28;20047;-55
2022/10/16 10:28:17;;;;;;;7.90;1.90;;;16.30;99.90;;;;;;4967465;28;20409;-55
2022/10/16 10:31:11;;;;;;;3.72;1.30;;;16.50;99.90;;;;;;4967949;28;20090;-55
2022/10/16 10:33:44;;;;;;;6.13;1.40;;;16.80;99.90;;;;;;4967182;28;20050;-55
2022/10/16 10:36:19;;;;;;;9.60;2.10;;;17.00;99.90;;;;;;4950269;28;20061;-55
2022/10/16 10:38:49;;;;;;;;;;;17.10;99.90;;;;;;4967531;28;20125;-56
2022/10/16 10:41:29;;;;;;;6.18;1.20;;;17.10;99.90;;;;;;4966787;28;20000;-55
2022/10/16 10:44:20;;;;;;;6.15;1.73;;;17.10;99.90;;;;;;4967898;28;20053;-55
2022/10/16 10:46:57;;;;;;;8.40;1.75;;;17.20;99.90;;;;;;4967256;28;20524;-55
2022/10/16 10:49:32;;;;;;;5.93;1.42;;;17.40;99.90;;;;;;4967254;28;20129;-55
2022/10/16 10:52:07;;;;;;;6.30;1.63;;;17.60;99.90;;;;;;4968451;28;20050;-55
2022/10/16 10:55:01;;;;;;;7.55;1.80;;;17.30;99.90;;;;;;4967419;28;20074;-55
2022/10/16 10:57:48;;;;;;;6.00;1.23;;;17.20;99.90;;;;;;4949288;28;20063;-55
2022/10/16 11:00:47;;;;;;;7.63;1.77;;;16.90;99.90;;;;;;4966656;28;20797;-55
2022/10/16 11:03:42;;;;;;;8.82;1.50;;;16.80;99.90;;;;;;4967741;28;20125;-57
2022/10/16 11:06:24;;;;;;;6.38;1.45;;;17.10;99.90;;;;;;4967102;28;20402;-54
2022/10/16 11:09:02;;;;;;;8.20;1.55;;;17.30;99.90;;;;;;4966815;28;20696;-56
2022/10/16 11:11:49;;;;;;;7.65;1.60;;;17.40;99.90;;;;;;4966804;28;20042;-55
2022/10/16 11:14:39;;;;;;;11.98;1.90;;;17.40;99.90;;;;;;4966476;28;20086;-54
2022/10/16 11:17:17;;;;;;;12.40;2.22;;;17.30;99.90;;;;;;4966869;28;20548;-54
2022/10/16 11:20:19;;;;;;;10.27;1.65;;;17.30;99.90;;;;;;4949464;28;20046;-55
2022/10/16 11:22:54;;;;;;;8.57;1.48;;;17.60;99.90;;;;;;4961751;28;20082;-55
2022/10/16 11:25:24;;;;;;;6.78;1.42;;;17.80;99.90;;;;;;4966796;28;20066;-55
2022/10/16 11:28:14;;;;;;;7.95;1.58;;;17.70;99.90;;;;;;4967397;28;20086;-55
2022/10/16 11:31:11;;;;;;;10.20;1.70;;;17.20;99.90;;;;;;4967622;28;20046;-55
2022/10/16 11:33:45;;;;;;;9.82;1.83;;;16.90;99.90;;;;;;4967244;28;20042;-55
2022/10/16 11:36:16;;;;;;;;;;;17.00;99.90;;;;;;4967270;28;20628;-55
2022/10/16 11:39:07;;;;;;;8.68;2.10;;;16.80;99.90;;;;;;4966358;28;19960;-55
2022/10/16 11:41:45;;;;;;;6.47;1.40;;;16.90;99.90;;;;;;4966157;28;20046;-55
2022/10/16 11:44:42;;;;;;;5.07;1.30;;;16.70;99.90;;;;;;4948920;28;20058;-55
2022/10/16 11:47:24;;;;;;;10.20;1.60;;;16.50;99.90;;;;;;4965408;28;20121;-55
2022/10/16 11:49:56;;;;;;;6.85;1.73;;;16.40;99.90;;;;;;4966550;28;20043;-55
2022/10/16 11:52:25;;;;;;;9.07;1.83;;;16.60;99.90;;;;;;4949131;28;20412;-54
2022/10/16 11:54:56;;;;;;;5.80;1.63;;;16.70;99.90;;;;;;4966178;28;20460;-55
2022/10/16 11:57:29;;;;;;;7.95;1.65;;;17.00;99.90;;;;;;4965664;28;20049;-54
2022/10/16 12:00:10;;;;;;;7.07;1.40;;;17.30;99.90;;;;;;4965137;28;20046;-54
2022/10/16 12:02:47;;;;;;;8.57;1.90;;;17.50;99.90;;;;;;4955947;28;20144;-55
2022/10/16 12:05:22;;;;;;;5.53;1.42;;;17.60;99.90;;;;;;4965715;28;20637;-55
2022/10/16 12:08:29;;;;;;;7.90;1.92;;;17.80;99.90;;;;;;4958267;28;20142;-55
2022/10/16 12:11:20;;;;;;;7.93;1.92;;;17.70;99.90;;;;;;4915931;28;20082;-55
2022/10/16 12:13:48;;;;;;;8.85;1.95;;;17.80;99.90;;;;;;4966215;28;20050;-55
2022/10/16 12:16:13;;;;;;;8.20;1.42;;;18.00;99.90;;;;;;4965806;28;20058;-55
2022/10/16 12:18:48;;;;;;;6.13;1.40;;;17.90;99.90;;;;;;4959984;28;20051;-55
2022/10/16 12:21:18;;;;;;;7.32;1.50;;;17.90;99.90;;;;;;4965312;28;20069;-55
2022/10/16 12:23:59;;;;;;;5.95;1.60;;;17.80;99.90;;;;;;4965398;28;20093;-58
2022/10/16 12:26:31;;;;;;;8.48;1.15;;;17.80;99.90;;;;;;4958858;28;20393;-56
2022/10/16 12:29:23;;;;;;;6.18;1.10;;;17.60;99.90;;;;;;4965427;28;20090;-57
2022/10/16 12:31:50;;;;;;;6.80;1.80;;;17.80;99.90;;;;;;4964446;28;20035;-54
2022/10/16 12:34:28;;;;;;;4.45;1.23;;;17.80;99.90;;;;;;4965088;28;20074;-55
2022/10/16 12:36:56;;;;;;;8.98;1.50;;;17.80;99.90;;;;;;4965106;28;20070;-56
2022/10/16 12:39:24;;;;;;;8.98;2.05;;;17.80;99.90;;;;;;4965260;28;20042;-55
2022/10/16 12:42:02;;;;;;;4.97;1.23;;;17.80;99.90;;;;;;4964141;28;20059;-55
2022/10/16 12:44:33;;;;;;;7.43;1.50;;;17.80;99.90;;;;;;4964591;28;20035;-55
2022/10/16 12:46:59;;;;;;;10.18;1.60;;;17.80;99.90;;;;;;4964103;28;20433;-56
2022/10/16 12:49:28;;;;;;;4.43;1.27;;;17.50;99.90;;;;;;4952237;28;20050;-55
2022/10/16 12:51:54;;;;;;;8.20;1.52;;;17.60;99.90;;;;;;4964637;28;20047;-55
2022/10/16 12:54:31;;;;;;;9.32;2.38;;;17.70;99.90;;;;;;4965399;28;20117;-55
2022/10/16 12:57:09;;;;;;;6.78;1.33;;;17.90;99.90;;;;;;4964783;28;20055;-55
2022/10/16 12:59:55;;;;;;;7.03;1.50;;;18.00;99.90;;;;;;4965189;28;20046;-54
2022/10/16 13:02:42;;;;;;;6.97;1.52;;;18.20;99.90;;;;;;4964654;28;20043;-54
2022/10/16 13:05:37;;;;;;;7.38;1.55;;;18.30;99.90;;;;;;4963473;28;20125;-54
2022/10/16 13:08:24;;;;;;;21.45;3.75;;;18.40;99.90;;;;;;4957610;28;20121;-55
2022/10/16 13:11:03;;;;;;;7.78;1.52;;;18.20;99.90;;;;;;4964031;28;20425;-55